Time;durP1;ratioP1;P1;durP2;ratioP2;P2;SDS_P1;SDS_P2;PMS_P1;PMS_P2;Temp;Humidity;BMP_temperature;BMP_pressure;BME280_temperature;BME280_humidity;BME280_pressure;Samples;Min_cycle;Max_cycle;Signal;HPM_P1;HPM_P2
2022/12/06 00:01:13;;;;;;;2.70;2.50;;;5.10;99.90;;;;;;4942829;29;20240;-83
2022/12/06 00:03:41;;;;;;;2.43;2.30;;;5.30;99.90;;;;;;4938581;29;20619;-84
2022/12/06 00:06:15;;;;;;;2.30;2.20;;;5.40;99.90;;;;;;4938830;29;20631;-82
2022/12/06 00:08:41;;;;;;;2.30;2.20;;;5.40;99.90;;;;;;4938670;29;20180;-85
2022/12/06 00:11:14;;;;;;;2.07;1.97;;;5.40;99.90;;;;;;4938615;29;20179;-86
2022/12/06 00:13:40;;;;;;;2.13;2.03;;;5.40;99.90;;;;;;4938563;29;20179;-83
2022/12/06 00:16:11;;;;;;;2.10;2.00;;;5.50;99.90;;;;;;4938609;29;20668;-82
2022/12/06 00:18:39;;;;;;;2.30;2.20;;;5.50;99.90;;;;;;4939492;29;20176;-83
2022/12/06 00:21:15;;;;;;;3.50;2.00;;;5.50;99.90;;;;;;4950608;29;20263;-82
2022/12/06 00:23:45;;;;;;;2.03;1.93;;;5.50;99.90;;;;;;4933688;29;20184;-85
2022/12/06 00:26:11;;;;;;;2.17;2.07;;;5.30;99.90;;;;;;4940081;29;20185;-84
2022/12/06 00:28:38;;;;;;;2.33;2.20;;;5.30;99.90;;;;;;4937916;29;20171;-85
2022/12/06 00:31:07;;;;;;;2.23;2.10;;;5.20;99.90;;;;;;4938024;29;20554;-85
2022/12/06 00:33:34;;;;;;;2.10;2.00;;;5.10;99.90;;;;;;4937709;29;20227;-85
2022/12/06 00:36:05;;;;;;;2.20;2.10;;;5.00;99.90;;;;;;4938115;29;20204;-84
2022/12/06 00:38:33;;;;;;;2.00;1.90;;;5.00;99.90;;;;;;4945459;29;20248;-83
2022/12/06 00:41:00;;;;;;;2.37;2.20;;;5.00;99.90;;;;;;4942999;29;20179;-82
2022/12/06 00:43:27;;;;;;;2.23;2.13;;;4.90;99.90;;;;;;4938331;29;20177;-83
2022/12/06 00:45:53;;;;;;;2.10;2.00;;;4.90;99.90;;;;;;4937546;29;20182;-84
2022/12/06 00:48:19;;;;;;;1.73;1.63;;;4.90;99.90;;;;;;4937008;29;20532;-84
2022/12/06 00:50:44;;;;;;;2.60;1.67;;;4.80;99.90;;;;;;4940314;29;20178;-85
2022/12/06 00:53:11;;;;;;;2.00;1.90;;;4.80;99.90;;;;;;4942096;29;20183;-85
2022/12/06 00:55:37;;;;;;;1.90;1.80;;;4.90;99.90;;;;;;4939013;29;20346;-83
2022/12/06 00:58:03;;;;;;;1.93;1.90;;;4.80;99.90;;;;;;4937263;29;20255;-82
2022/12/06 01:00:29;;;;;;;1.87;1.80;;;4.80;99.90;;;;;;4910102;29;20344;-86
2022/12/06 01:02:57;;;;;;;1.90;1.80;;;4.80;99.90;;;;;;4899967;29;20174;-83
2022/12/06 01:05:23;;;;;;;2.17;2.00;;;4.80;99.90;;;;;;4904128;29;20194;-83
2022/12/06 01:07:49;;;;;;;2.40;2.30;;;4.70;99.90;;;;;;4905071;29;20187;-82
2022/12/06 01:10:15;;;;;;;2.37;2.17;;;4.70;99.90;;;;;;4900104;29;20239;-82
2022/12/06 01:12:40;;;;;;;2.43;2.30;;;4.70;99.90;;;;;;4901303;29;20190;-84
2022/12/06 01:15:07;;;;;;;2.33;2.23;;;4.60;99.90;;;;;;4906373;29;20189;-83
2022/12/06 01:17:33;;;;;;;2.47;2.27;;;4.70;99.90;;;;;;4905484;29;20213;-84
2022/12/06 01:19:59;;;;;;;2.50;2.40;;;4.70;99.90;;;;;;4902373;29;20182;-82
2022/12/06 01:22:26;;;;;;;2.37;2.27;;;4.70;99.90;;;;;;4914249;29;20268;-84
2022/12/06 01:24:51;;;;;;;2.50;2.40;;;4.70;99.90;;;;;;4899454;29;20206;-85
2022/12/06 01:27:17;;;;;;;2.87;2.67;;;4.80;99.90;;;;;;4899756;29;20214;-83
2022/12/06 01:29:43;;;;;;;3.43;3.13;;;4.70;99.90;;;;;;4899087;29;20181;-83
2022/12/06 01:32:09;;;;;;;2.77;2.57;;;4.70;99.90;;;;;;4900582;29;20187;-84
2022/12/06 01:34:35;;;;;;;2.70;2.50;;;4.60;99.90;;;;;;4897606;29;20208;-85
2022/12/06 01:37:01;;;;;;;3.10;2.80;;;4.70;99.90;;;;;;4902949;29;20206;-86
2022/12/06 01:39:27;;;;;;;5.40;3.30;;;4.80;99.90;;;;;;4901396;29;20213;-84
2022/12/06 01:41:52;;;;;;;3.53;2.70;;;4.80;99.90;;;;;;4899031;29;20174;-82
2022/12/06 01:44:43;;;;;;;3.00;2.80;;;4.80;99.90;;;;;;4899031;29;20192;-84
2022/12/06 01:47:12;;;;;;;3.20;3.00;;;4.80;99.90;;;;;;4898834;29;20197;-85
2022/12/06 01:49:40;;;;;;;3.87;3.00;;;4.80;99.90;;;;;;4898922;29;20677;-84
2022/12/06 01:52:11;;;;;;;2.80;2.60;;;4.80;99.90;;;;;;4898829;29;20182;-84
2022/12/06 01:54:39;;;;;;;4.97;2.93;;;4.90;99.90;;;;;;4898910;29;20177;-85
2022/12/06 01:57:07;;;;;;;3.17;2.93;;;4.80;99.90;;;;;;4899605;29;20202;-84
2022/12/06 01:59:34;;;;;;;3.37;3.03;;;4.90;99.90;;;;;;4908931;29;20647;-83
2022/12/06 02:02:00;;;;;;;4.47;3.20;;;4.90;99.90;;;;;;4937099;29;20232;-83
2022/12/06 02:04:28;;;;;;;2.93;2.73;;;4.90;99.90;;;;;;4945004;29;20181;-82
2022/12/06 02:06:55;;;;;;;3.40;3.10;;;4.90;99.90;;;;;;4938124;29;20172;-84
2022/12/06 02:09:22;;;;;;;4.77;3.00;;;4.80;99.90;;;;;;4936489;29;20181;-83
2022/12/06 02:11:47;;;;;;;3.43;3.20;;;4.80;99.90;;;;;;4936258;29;20183;-80
2022/12/06 02:14:18;;;;;;;3.07;2.87;;;4.80;99.90;;;;;;4936071;29;20515;-81
2022/12/06 02:17:22;;;;;;;3.80;3.33;;;4.70;99.90;;;;;;4936107;29;20212;-82
2022/12/06 02:20:12;;;;;;;3.20;2.87;;;4.60;99.90;;;;;;4936462;29;20656;-84
2022/12/06 02:22:49;;;;;;;3.03;2.83;;;4.60;99.90;;;;;;4919304;29;20556;-84
2022/12/06 02:25:40;;;;;;;2.80;2.63;;;4.50;99.90;;;;;;4918955;29;20505;-85
2022/12/06 02:28:51;;;;;;;2.77;2.57;;;4.50;99.90;;;;;;4936563;29;20185;-84
2022/12/06 02:31:50;;;;;;;3.00;2.80;;;4.40;99.90;;;;;;4946634;29;20165;-85
2022/12/06 02:34:17;;;;;;;3.10;2.80;;;4.30;99.90;;;;;;4918169;29;20196;-83
2022/12/06 02:37:06;;;;;;;2.80;2.60;;;4.30;99.90;;;;;;4936046;29;20806;-84
2022/12/06 02:39:50;;;;;;;3.30;3.03;;;4.30;99.90;;;;;;4936173;29;20167;-84
2022/12/06 02:43:03;;;;;;;2.77;2.57;;;4.30;99.90;;;;;;4943644;29;20187;-83
2022/12/06 02:45:37;;;;;;;2.63;2.43;;;4.30;99.90;;;;;;4931566;29;20648;-84
2022/12/06 02:48:05;;;;;;;2.80;2.60;;;4.20;99.90;;;;;;4936368;29;20761;-84
2022/12/06 02:50:39;;;;;;;2.90;2.70;;;4.20;99.90;;;;;;4936727;29;20198;-82
2022/12/06 02:53:09;;;;;;;2.93;2.73;;;4.20;99.90;;;;;;4940553;29;20174;-82
2022/12/06 02:55:36;;;;;;;2.90;2.70;;;4.30;99.90;;;;;;4936453;29;20247;-82
2022/12/06 02:58:02;;;;;;;2.77;2.57;;;4.20;99.90;;;;;;4937592;29;20249;-83
2022/12/06 03:00:48;;;;;;;3.00;2.77;;;4.20;99.90;;;;;;4910799;29;20232;-81
2022/12/06 03:03:51;;;;;;;2.80;2.60;;;4.20;99.90;;;;;;4897534;29;20215;-83
2022/12/06 03:06:48;;;;;;;2.53;2.43;;;4.10;99.90;;;;;;4900849;29;20233;-80
2022/12/06 03:09:34;;;;;;;3.00;2.80;;;4.00;99.90;;;;;;4905444;29;20173;-85
2022/12/06 03:12:02;;;;;;;2.90;2.70;;;4.00;99.90;;;;;;4906369;29;20180;-85
2022/12/06 03:14:39;;;;;;;2.90;2.70;;;4.00;99.90;;;;;;4905228;29;20189;-83
2022/12/06 03:17:30;;;;;;;3.27;2.97;;;4.00;99.90;;;;;;4904532;29;20640;-82
2022/12/06 03:20:04;;;;;;;2.70;2.50;;;4.00;99.90;;;;;;4901873;29;20170;-84
2022/12/06 03:22:40;;;;;;;2.50;2.30;;;4.00;99.90;;;;;;4901834;29;20171;-85
2022/12/06 03:25:08;;;;;;;3.07;2.77;;;4.00;99.90;;;;;;4902380;29;20310;-85
2022/12/06 03:27:35;;;;;;;3.17;2.97;;;4.00;99.90;;;;;;4901417;29;20216;-84
2022/12/06 03:30:07;;;;;;;2.47;2.37;;;4.10;99.90;;;;;;4901511;29;20268;-84
2022/12/06 03:32:36;;;;;;;3.00;2.80;;;4.10;99.90;;;;;;4900040;29;20169;-84
2022/12/06 03:35:07;;;;;;;2.53;2.43;;;4.20;99.90;;;;;;4900557;29;20185;-82
2022/12/06 03:37:37;;;;;;;3.50;3.20;;;4.20;99.90;;;;;;4908541;29;20227;-84
2022/12/06 03:40:10;;;;;;;3.03;2.83;;;4.30;99.90;;;;;;4901089;29;20201;-83
2022/12/06 03:42:36;;;;;;;3.43;3.17;;;4.30;99.90;;;;;;4901030;29;20170;-85
2022/12/06 03:45:03;;;;;;;3.80;3.43;;;4.20;99.90;;;;;;4901170;29;20203;-83
2022/12/06 03:47:36;;;;;;;3.37;3.07;;;4.20;99.90;;;;;;4901433;29;20629;-85
2022/12/06 03:50:08;;;;;;;3.47;3.17;;;4.30;99.90;;;;;;4901542;29;20198;-84
2022/12/06 03:52:34;;;;;;;3.13;2.90;;;4.30;99.90;;;;;;4900628;29;20172;-84
2022/12/06 03:55:00;;;;;;;3.73;3.20;;;4.30;99.90;;;;;;4903855;29;20195;-85
2022/12/06 03:57:26;;;;;;;3.90;3.10;;;4.30;99.90;;;;;;4901435;29;20209;-85
2022/12/06 03:59:52;;;;;;;3.80;3.20;;;4.30;99.90;;;;;;4918920;29;20209;-83
2022/12/06 04:02:18;;;;;;;3.10;2.90;;;4.30;99.90;;;;;;4942552;29;20184;-84
2022/12/06 04:04:44;;;;;;;3.53;3.23;;;4.30;99.90;;;;;;4921701;29;20206;-85
2022/12/06 04:07:12;;;;;;;3.43;3.13;;;4.30;99.90;;;;;;4941119;29;20550;-84
2022/12/06 04:10:01;;;;;;;4.13;3.00;;;4.40;99.90;;;;;;4933665;29;20255;-84
2022/12/06 04:15:14;;;;;;;3.33;3.13;;;4.40;99.90;;;;;;4938451;29;20177;-85
2022/12/06 04:20:26;;;;;;;3.90;3.60;;;4.40;99.90;;;;;;4938257;29;20475;-85
2022/12/06 04:23:04;;;;;;;3.37;3.17;;;4.40;99.90;;;;;;4936965;29;20234;-84
2022/12/06 04:25:32;;;;;;;3.47;3.27;;;4.40;99.90;;;;;;4922811;29;20247;-85
2022/12/06 04:38:55;;;;;;;3.37;3.10;;;4.50;99.90;;;;;;4937909;29;20703;-83
2022/12/06 04:44:06;;;;;;;3.20;3.00;;;4.50;99.90;;;;;;4938421;29;20178;-84
2022/12/06 04:46:32;;;;;;;3.53;3.30;;;4.50;99.90;;;;;;4939231;29;20179;-84
2022/12/06 04:48:58;;;;;;;3.53;3.23;;;4.50;99.90;;;;;;4939900;29;20181;-83
2022/12/06 04:51:25;;;;;;;3.47;3.17;;;4.50;99.90;;;;;;4940696;29;20184;-81
2022/12/06 04:53:50;;;;;;;3.80;3.50;;;4.50;99.90;;;;;;4941378;29;20186;-83
2022/12/06 04:56:17;;;;;;;3.90;3.60;;;4.50;99.90;;;;;;4923951;29;20210;-83
2022/12/06 04:58:43;;;;;;;3.20;3.00;;;4.60;99.90;;;;;;4920974;29;20186;-86
2022/12/06 05:01:09;;;;;;;3.70;3.50;;;4.60;99.90;;;;;;4936981;29;20345;-82
2022/12/06 05:03:36;;;;;;;3.83;3.53;;;4.60;99.90;;;;;;4937299;29;20190;-83
2022/12/06 05:06:02;;;;;;;4.23;3.10;;;4.60;99.90;;;;;;4937163;29;20168;-85
2022/12/06 05:08:28;;;;;;;3.33;3.13;;;4.60;99.90;;;;;;4937405;29;20180;-85
2022/12/06 05:10:54;;;;;;;3.00;2.80;;;4.60;99.90;;;;;;4920343;29;20231;-84
2022/12/06 05:13:20;;;;;;;3.40;3.10;;;4.50;99.90;;;;;;4940085;29;20187;-83
2022/12/06 05:16:01;;;;;;;3.90;3.60;;;4.60;99.90;;;;;;4939410;29;20180;-83
2022/12/06 05:18:28;;;;;;;3.67;3.37;;;4.70;99.90;;;;;;4938105;29;20625;-85
2022/12/06 05:21:07;;;;;;;3.97;3.67;;;4.70;99.90;;;;;;4937096;29;20168;-85
2022/12/06 05:23:33;;;;;;;4.27;3.87;;;4.70;99.90;;;;;;4937181;29;20188;-83
2022/12/06 05:26:01;;;;;;;4.00;3.70;;;4.80;99.90;;;;;;4920448;29;20242;-83
2022/12/06 05:28:27;;;;;;;4.30;3.70;;;4.80;99.90;;;;;;4942813;29;20645;-82
2022/12/06 05:30:53;;;;;;;3.87;3.57;;;4.80;99.90;;;;;;4937183;29;20250;-83
2022/12/06 05:33:19;;;;;;;3.50;3.20;;;4.80;99.90;;;;;;4937993;29;20235;-85
2022/12/06 05:35:45;;;;;;;3.90;3.60;;;4.80;99.90;;;;;;4938883;29;20175;-84
2022/12/06 05:38:11;;;;;;;3.67;3.37;;;4.80;99.90;;;;;;4950516;29;20298;-84
2022/12/06 05:40:39;;;;;;;3.97;3.60;;;4.70;99.90;;;;;;4937523;29;20170;-85
2022/12/06 05:43:05;;;;;;;3.20;3.00;;;4.70;99.90;;;;;;4939933;29;20528;-84
2022/12/06 05:45:31;;;;;;;5.13;3.77;;;4.70;99.90;;;;;;4919979;29;20198;-84
2022/12/06 05:47:56;;;;;;;3.90;3.60;;;4.70;99.90;;;;;;4936680;29;20168;-85
2022/12/06 05:50:22;;;;;;;4.57;4.13;;;4.60;99.90;;;;;;4936543;29;20177;-83
2022/12/06 05:52:53;;;;;;;4.73;4.33;;;4.60;99.90;;;;;;4937120;29;20171;-84
2022/12/06 05:55:19;;;;;;;4.50;4.10;;;4.50;99.90;;;;;;4936785;29;20174;-85
2022/12/06 05:57:44;;;;;;;4.70;4.30;;;4.40;99.90;;;;;;4919007;29;20304;-84
2022/12/06 06:00:11;;;;;;;4.40;4.00;;;4.40;99.90;;;;;;4919169;29;20227;-82
2022/12/06 06:02:37;;;;;;;4.00;3.70;;;4.40;99.90;;;;;;4936404;29;20251;-84
2022/12/06 06:05:03;;;;;;;4.70;4.20;;;4.40;99.90;;;;;;4936234;29;20740;-83
2022/12/06 06:07:29;;;;;;;5.00;4.50;;;4.30;99.90;;;;;;4936242;29;20265;-85
2022/12/06 06:09:55;;;;;;;4.17;3.77;;;4.40;99.90;;;;;;4919255;29;20640;-82
2022/12/06 06:12:21;;;;;;;3.87;3.57;;;4.40;99.90;;;;;;4936100;29;20175;-80
2022/12/06 06:14:47;;;;;;;5.17;4.30;;;4.40;99.90;;;;;;4936262;29;20190;-80
2022/12/06 06:17:13;;;;;;;4.17;3.73;;;4.40;99.90;;;;;;4936097;29;20207;-80
2022/12/06 06:19:38;;;;;;;4.10;3.70;;;4.40;99.90;;;;;;4919008;29;20242;-79
2022/12/06 06:22:04;;;;;;;4.27;3.97;;;4.50;99.90;;;;;;4937796;29;20290;-83
2022/12/06 06:24:41;;;;;;;4.50;4.10;;;4.50;99.90;;;;;;4938093;29;20177;-83
2022/12/06 06:27:08;;;;;;;3.97;3.67;;;4.50;99.90;;;;;;4938960;29;20172;-82
2022/12/06 06:29:34;;;;;;;3.93;3.57;;;4.50;99.90;;;;;;4940538;29;20172;-83
2022/12/06 06:32:00;;;;;;;4.40;4.00;;;4.50;99.90;;;;;;4936165;29;20252;-82
2022/12/06 06:34:26;;;;;;;5.10;4.60;;;4.60;99.90;;;;;;4917978;29;20286;-81
2022/12/06 06:36:52;;;;;;;5.33;4.83;;;4.70;99.90;;;;;;4936664;29;20246;-81
2022/12/06 06:39:18;;;;;;;4.77;4.37;;;4.60;99.90;;;;;;4936016;29;20251;-81
2022/12/06 06:41:44;;;;;;;4.90;4.47;;;4.70;99.90;;;;;;4937025;29;20219;-84
2022/12/06 06:44:10;;;;;;;4.27;3.87;;;4.70;99.90;;;;;;4939028;29;20253;-79
2022/12/06 06:46:36;;;;;;;4.90;4.50;;;4.70;99.90;;;;;;4941060;29;20219;-80
2022/12/06 06:49:02;;;;;;;4.70;4.30;;;4.70;99.90;;;;;;4940596;29;20184;-81
2022/12/06 06:51:31;;;;;;;5.33;4.73;;;4.80;99.90;;;;;;4940653;29;20180;-80
2022/12/06 06:53:57;;;;;;;5.83;5.10;;;4.80;99.90;;;;;;4928028;29;20275;-83
2022/12/06 06:56:23;;;;;;;5.43;4.87;;;4.90;99.90;;;;;;4944536;29;20290;-83
2022/12/06 06:58:50;;;;;;;6.07;4.70;;;4.90;99.90;;;;;;4940749;29;20172;-83
2022/12/06 07:01:18;;;;;;;6.00;4.67;;;4.90;99.90;;;;;;4939721;29;20221;-84
2022/12/06 07:03:45;;;;;;;6.50;4.80;;;4.80;99.90;;;;;;4943912;29;20183;-84
2022/12/06 07:06:11;;;;;;;5.57;4.40;;;4.80;99.90;;;;;;4956502;29;20172;-84
2022/12/06 07:08:38;;;;;;;5.53;4.37;;;4.80;99.90;;;;;;4948242;29;20573;-85
2022/12/06 07:11:05;;;;;;;4.77;4.37;;;4.80;99.90;;;;;;4941394;29;20190;-84
2022/12/06 07:13:31;;;;;;;5.87;4.90;;;4.80;99.90;;;;;;4942818;29;20190;-85
2022/12/06 07:15:57;;;;;;;5.07;4.57;;;4.90;99.90;;;;;;4941244;29;20176;-85
2022/12/06 07:18:24;;;;;;;4.90;4.40;;;5.00;99.90;;;;;;4928767;29;20613;-83
2022/12/06 07:21:04;;;;;;;4.87;4.47;;;5.00;99.90;;;;;;4923319;29;20180;-85
2022/12/06 07:23:32;;;;;;;5.00;4.37;;;4.90;99.90;;;;;;4939674;29;20164;-83
2022/12/06 07:26:05;;;;;;;4.87;4.37;;;4.80;99.90;;;;;;4940063;29;20184;-85
2022/12/06 07:28:33;;;;;;;6.10;4.30;;;4.80;99.90;;;;;;4939234;29;20179;-85
2022/12/06 07:31:07;;;;;;;4.33;3.93;;;4.70;99.90;;;;;;4939556;29;20268;-85
2022/12/06 07:33:33;;;;;;;4.67;4.27;;;4.70;99.90;;;;;;4922398;29;20172;-84
2022/12/06 07:35:59;;;;;;;4.97;4.07;;;4.70;99.90;;;;;;4922258;29;20254;-86
2022/12/06 07:38:25;;;;;;;4.13;3.83;;;4.70;99.90;;;;;;4939096;29;20200;-84
2022/12/06 07:40:52;;;;;;;4.77;4.37;;;4.80;99.90;;;;;;4921917;29;20184;-86
2022/12/06 07:46:02;;;;;;;4.10;3.80;;;4.90;99.90;;;;;;4939101;29;20706;-85
2022/12/06 07:48:28;;;;;;;4.57;4.17;;;5.00;99.90;;;;;;4921742;29;20184;-85
2022/12/06 07:50:54;;;;;;;4.23;3.83;;;5.00;99.90;;;;;;4939092;29;20543;-85
2022/12/06 07:53:19;;;;;;;4.30;3.90;;;5.10;99.90;;;;;;4939142;29;20185;-85
2022/12/06 07:55:45;;;;;;;4.33;4.03;;;5.20;99.90;;;;;;4940693;29;20168;-83
2022/12/06 07:58:11;;;;;;;4.60;4.20;;;5.30;99.90;;;;;;4939239;29;20653;-83
2022/12/06 08:00:37;;;;;;;4.77;4.00;;;5.20;99.90;;;;;;4939291;29;20231;-82
2022/12/06 08:03:03;;;;;;;4.63;4.23;;;5.50;99.90;;;;;;4938635;29;20190;-84
2022/12/06 08:05:29;;;;;;;3.67;3.47;;;5.50;99.90;;;;;;4939400;29;20226;-80
2022/12/06 08:07:55;;;;;;;4.10;3.80;;;5.50;99.90;;;;;;4922106;29;20223;-77
2022/12/06 08:10:20;;;;;;;4.23;3.93;;;5.60;99.90;;;;;;4938851;29;20181;-81
2022/12/06 08:12:46;;;;;;;4.13;3.90;;;5.70;99.90;;;;;;4939660;29;20181;-81
2022/12/06 08:15:12;;;;;;;3.90;3.60;;;5.70;99.90;;;;;;4940186;29;20173;-81
2022/12/06 08:17:39;;;;;;;3.70;3.40;;;5.80;99.90;;;;;;4938184;29;20304;-79
2022/12/06 08:20:07;;;;;;;3.90;3.60;;;5.90;99.90;;;;;;4920691;29;20218;-81
2022/12/06 08:22:33;;;;;;;3.70;3.40;;;5.90;99.90;;;;;;4942472;29;20182;-80
2022/12/06 08:25:00;;;;;;;4.03;3.63;;;5.90;99.90;;;;;;4940072;29;20183;-78
2022/12/06 08:27:26;;;;;;;3.37;3.17;;;5.90;99.90;;;;;;4922403;29;20197;-78
2022/12/06 08:29:52;;;;;;;4.10;3.70;;;5.80;99.90;;;;;;4939139;29;20196;-82
2022/12/06 08:32:18;;;;;;;3.17;2.97;;;5.70;99.90;;;;;;4924730;29;20635;-79
2022/12/06 08:34:44;;;;;;;3.73;3.43;;;5.70;99.90;;;;;;4945179;29;20241;-80
2022/12/06 08:37:10;;;;;;;3.90;3.60;;;5.80;99.90;;;;;;4954369;29;20226;-78
2022/12/06 08:39:36;;;;;;;3.70;3.40;;;5.80;99.90;;;;;;4946368;29;20237;-77
2022/12/06 08:42:02;;;;;;;4.97;4.57;;;5.70;99.90;;;;;;4938977;29;20182;-86
2022/12/06 08:44:30;;;;;;;4.10;3.80;;;5.70;99.90;;;;;;4940162;29;20186;-84
2022/12/06 08:46:57;;;;;;;4.30;3.90;;;5.60;99.90;;;;;;4943629;29;20183;-83
2022/12/06 08:49:24;;;;;;;4.30;4.00;;;5.60;99.90;;;;;;4941843;29;20185;-80
2022/12/06 08:51:50;;;;;;;4.10;3.80;;;5.70;99.90;;;;;;4945481;29;20629;-82
2022/12/06 08:54:19;;;;;;;4.03;3.77;;;5.70;99.90;;;;;;4925916;29;20652;-80
2022/12/06 08:56:45;;;;;;;4.73;4.30;;;5.70;99.90;;;;;;4906675;29;20219;-84
2022/12/06 08:59:11;;;;;;;4.70;4.30;;;5.70;99.90;;;;;;4945621;29;20179;-83
2022/12/06 09:01:37;;;;;;;5.50;4.10;;;5.50;99.90;;;;;;4948064;29;20276;-82
2022/12/06 09:04:05;;;;;;;4.60;4.00;;;5.50;99.90;;;;;;4946633;29;20168;-84
2022/12/06 09:06:31;;;;;;;3.97;3.77;;;5.60;99.90;;;;;;4940313;29;20177;-86
2022/12/06 09:08:57;;;;;;;4.00;3.70;;;5.60;99.90;;;;;;4937263;29;20176;-85
2022/12/06 09:11:24;;;;;;;3.93;3.63;;;5.70;99.90;;;;;;4937154;29;20540;-86
2022/12/06 09:13:50;;;;;;;4.33;3.53;;;5.60;99.90;;;;;;4937290;29;20180;-84
2022/12/06 09:16:20;;;;;;;3.90;3.60;;;5.60;99.90;;;;;;4938172;29;20679;-83
2022/12/06 09:18:46;;;;;;;4.40;4.00;;;5.60;99.90;;;;;;4940445;29;20181;-85
2022/12/06 09:21:18;;;;;;;3.97;3.67;;;5.70;99.90;;;;;;4941454;29;20262;-84
2022/12/06 09:23:44;;;;;;;4.50;4.10;;;5.80;99.90;;;;;;4937471;29;20178;-86
2022/12/06 09:26:10;;;;;;;4.27;3.97;;;5.80;99.90;;;;;;4937739;29;20183;-84
2022/12/06 09:28:38;;;;;;;4.30;4.00;;;5.90;99.90;;;;;;4937697;29;20224;-84
2022/12/06 09:31:05;;;;;;;3.90;3.60;;;6.00;99.90;;;;;;4937115;29;20192;-84
2022/12/06 09:33:31;;;;;;;3.80;3.60;;;6.00;99.90;;;;;;4937621;29;20176;-84
2022/12/06 09:36:05;;;;;;;3.80;3.50;;;6.00;99.90;;;;;;4936896;29;20517;-80
2022/12/06 09:38:34;;;;;;;3.83;3.63;;;5.90;99.90;;;;;;4936664;29;20173;-84
2022/12/06 09:41:31;;;;;;;4.00;3.70;;;5.90;99.90;;;;;;4919768;29;20666;-81
2022/12/06 09:44:10;;;;;;;3.83;3.53;;;5.90;99.90;;;;;;4938973;29;20219;-79
2022/12/06 09:46:55;;;;;;;3.93;3.63;;;5.90;99.90;;;;;;4936772;29;20164;-78
2022/12/06 09:49:24;;;;;;;3.87;3.57;;;5.80;99.90;;;;;;4936748;29;20168;-79
2022/12/06 09:52:17;;;;;;;3.97;3.67;;;5.70;99.90;;;;;;4920924;29;20273;-78
2022/12/06 09:55:01;;;;;;;4.83;4.33;;;5.80;99.90;;;;;;4936868;29;20173;-81
2022/12/06 09:57:35;;;;;;;4.03;3.73;;;5.80;99.90;;;;;;4936834;29;20231;-83
2022/12/06 10:00:06;;;;;;;4.57;4.20;;;5.80;99.90;;;;;;4945754;29;20234;-80
2022/12/06 10:02:53;;;;;;;5.53;5.03;;;5.80;99.90;;;;;;4941069;29;20180;-79
2022/12/06 10:05:27;;;;;;;5.90;5.30;;;5.80;99.90;;;;;;4937290;29;20506;-82
2022/12/06 10:08:08;;;;;;;6.47;5.77;;;5.90;99.90;;;;;;4938441;29;20180;-80
2022/12/06 10:10:43;;;;;;;7.73;6.97;;;6.00;99.90;;;;;;4942752;29;20164;-82
2022/12/06 10:13:20;;;;;;;7.43;6.73;;;6.00;99.90;;;;;;4938552;29;20189;-82
2022/12/06 10:15:57;;;;;;;7.30;6.60;;;6.00;99.90;;;;;;4938138;29;20171;-84
2022/12/06 10:18:49;;;;;;;9.10;6.90;;;6.10;99.90;;;;;;4938393;29;20246;-84
2022/12/06 10:21:37;;;;;;;8.03;6.57;;;6.10;99.90;;;;;;4928844;29;20199;-83
2022/12/06 10:24:34;;;;;;;8.67;7.23;;;6.10;99.90;;;;;;4923965;29;20171;-80
2022/12/06 10:27:22;;;;;;;9.57;6.63;;;6.10;99.90;;;;;;4943300;29;20192;-81
2022/12/06 10:30:03;;;;;;;8.40;6.90;;;6.00;99.90;;;;;;4936627;29;20227;-85
2022/12/06 10:32:34;;;;;;;7.20;6.50;;;6.00;99.90;;;;;;4923996;29;20169;-83
2022/12/06 10:35:19;;;;;;;7.67;6.93;;;6.00;99.90;;;;;;4936676;29;20270;-81
2022/12/06 10:38:11;;;;;;;7.43;6.63;;;6.00;99.90;;;;;;4918783;29;20207;-85
2022/12/06 10:40:39;;;;;;;7.70;6.50;;;6.00;99.90;;;;;;4935781;29;20182;-84
2022/12/06 10:43:19;;;;;;;9.70;6.80;;;6.10;99.90;;;;;;4936260;29;20204;-83
2022/12/06 10:49:15;;;;;;;6.23;5.60;;;6.10;99.90;;;;;;4936152;29;20213;-85
2022/12/06 10:51:43;;;;;;;7.50;6.63;;;6.20;99.90;;;;;;4935896;29;20212;-85
2022/12/06 10:54:40;;;;;;;7.27;6.40;;;6.10;99.90;;;;;;4935717;29;20185;-84
2022/12/06 10:57:14;;;;;;;6.83;6.13;;;6.10;99.90;;;;;;4918742;29;20572;-85
2022/12/06 10:59:53;;;;;;;7.90;7.10;;;6.10;99.90;;;;;;4935554;29;20244;-83
2022/12/06 11:02:42;;;;;;;9.23;6.87;;;6.00;99.90;;;;;;4935977;29;20172;-83
2022/12/06 11:05:24;;;;;;;8.63;6.70;;;6.10;99.90;;;;;;4924726;29;20201;-82
2022/12/06 11:07:54;;;;;;;7.63;6.83;;;6.30;99.90;;;;;;4941462;29;20198;-84
2022/12/06 11:10:26;;;;;;;8.00;7.20;;;6.40;99.90;;;;;;4936600;29;20170;-85
2022/12/06 11:12:58;;;;;;;8.67;6.57;;;6.50;99.90;;;;;;4936055;29;20178;-84
2022/12/06 11:15:30;;;;;;;7.20;6.50;;;6.60;99.90;;;;;;4936298;29;20228;-83
2022/12/06 11:18:11;;;;;;;8.47;5.77;;;6.70;99.90;;;;;;4938622;29;20212;-85
2022/12/06 11:21:16;;;;;;;5.67;5.17;;;6.80;99.90;;;;;;4939566;29;20631;-83
2022/12/06 11:24:03;;;;;;;5.13;4.70;;;6.90;99.90;;;;;;4896660;29;20192;-83
2022/12/06 11:26:52;;;;;;;5.50;5.10;;;7.00;99.90;;;;;;4935352;29;20173;-81
2022/12/06 11:29:18;;;;;;;5.00;4.60;;;7.00;99.90;;;;;;4939804;29;20572;-79
2022/12/06 11:31:53;;;;;;;6.43;5.83;;;6.90;99.90;;;;;;4937534;29;20212;-84
2022/12/06 11:34:28;;;;;;;6.00;5.50;;;6.80;99.90;;;;;;4938606;29;20172;-79
2022/12/06 11:36:55;;;;;;;5.47;4.97;;;6.80;99.90;;;;;;4921706;29;20570;-79
2022/12/06 11:39:22;;;;;;;6.07;4.50;;;6.80;99.90;;;;;;4939058;29;20177;-79
2022/12/06 11:41:54;;;;;;;5.17;4.77;;;6.80;99.90;;;;;;4924125;29;20178;-82
2022/12/06 11:44:25;;;;;;;5.80;5.20;;;6.80;99.90;;;;;;4940804;29;20172;-78
2022/12/06 11:46:59;;;;;;;4.80;4.50;;;6.80;99.90;;;;;;4943831;29;20170;-83
2022/12/06 11:49:39;;;;;;;4.60;4.23;;;6.80;99.90;;;;;;4925989;29;20219;-83
2022/12/06 11:52:36;;;;;;;4.90;4.50;;;6.80;99.90;;;;;;4939555;29;20188;-80
2022/12/06 11:55:24;;;;;;;4.37;4.07;;;6.70;99.90;;;;;;4921417;29;20221;-82
2022/12/06 11:58:10;;;;;;;5.97;4.60;;;6.60;99.90;;;;;;4921361;29;20245;-84
2022/12/06 12:00:36;;;;;;;5.37;4.87;;;6.60;99.90;;;;;;4938261;29;20229;-80
2022/12/06 12:03:02;;;;;;;5.93;4.63;;;6.70;99.90;;;;;;4938332;29;20176;-81
2022/12/06 12:05:37;;;;;;;4.43;4.10;;;6.60;99.90;;;;;;4940061;29;20174;-82
2022/12/06 12:08:15;;;;;;;4.47;4.10;;;6.60;99.90;;;;;;4940646;29;20165;-82
2022/12/06 12:10:57;;;;;;;4.60;4.20;;;6.70;99.90;;;;;;4941179;29;20217;-83
2022/12/06 12:13:45;;;;;;;3.97;3.67;;;6.70;99.90;;;;;;4924799;29;20201;-83
2022/12/06 12:16:21;;;;;;;4.73;4.30;;;6.80;99.90;;;;;;4944118;29;20159;-80
2022/12/06 12:18:57;;;;;;;4.67;4.27;;;6.80;99.90;;;;;;4946093;29;20199;-83
2022/12/06 12:21:37;;;;;;;4.73;4.37;;;6.80;99.90;;;;;;4942285;29;20209;-80
2022/12/06 12:24:04;;;;;;;5.40;4.90;;;6.80;99.90;;;;;;4939607;29;20169;-84
2022/12/06 12:26:39;;;;;;;5.40;4.90;;;6.80;99.90;;;;;;4937991;29;20176;-83
2022/12/06 12:29:13;;;;;;;4.77;4.20;;;6.80;99.90;;;;;;4938201;29;20200;-86
2022/12/06 12:31:58;;;;;;;4.90;4.50;;;6.80;99.90;;;;;;4938695;29;20172;-78
2022/12/06 12:34:28;;;;;;;4.83;4.43;;;6.70;99.90;;;;;;4921268;29;20183;-82
2022/12/06 12:36:59;;;;;;;5.13;4.63;;;6.70;99.90;;;;;;4938588;29;20213;-84
2022/12/06 12:39:38;;;;;;;4.87;4.47;;;6.70;99.90;;;;;;4920657;29;20234;-85
2022/12/06 12:42:26;;;;;;;4.70;4.30;;;6.60;99.90;;;;;;4937754;29;20628;-84
2022/12/06 12:44:57;;;;;;;5.17;4.67;;;6.50;99.90;;;;;;4938827;29;20185;-83
2022/12/06 12:47:25;;;;;;;5.20;4.73;;;6.40;99.90;;;;;;4947412;29;20173;-85
2022/12/06 12:50:18;;;;;;;5.20;4.70;;;6.30;99.90;;;;;;4938527;29;20173;-85
2022/12/06 12:52:45;;;;;;;5.00;4.60;;;6.20;99.90;;;;;;4939618;29;20182;-84
2022/12/06 12:55:16;;;;;;;4.80;4.40;;;6.20;99.90;;;;;;4939408;29;20183;-86
2022/12/06 12:57:54;;;;;;;4.77;4.37;;;6.20;99.90;;;;;;4943623;29;20697;-84
2022/12/06 13:00:36;;;;;;;6.07;5.47;;;6.20;99.90;;;;;;4940013;29;20274;-85
2022/12/06 13:03:21;;;;;;;6.17;5.60;;;6.20;99.90;;;;;;4937921;29;20254;-85
2022/12/06 13:05:48;;;;;;;5.60;5.07;;;6.20;99.90;;;;;;4937211;29;20176;-82
2022/12/06 13:08:23;;;;;;;4.63;4.23;;;6.20;99.90;;;;;;4937459;29;20179;-83
2022/12/06 13:10:53;;;;;;;5.20;4.80;;;6.20;99.90;;;;;;4936804;29;20164;-81
2022/12/06 13:13:35;;;;;;;5.80;5.30;;;6.20;99.90;;;;;;4937316;29;20241;-82
2022/12/06 13:16:05;;;;;;;5.60;5.13;;;6.30;99.90;;;;;;4938123;29;20170;-82
2022/12/06 13:18:56;;;;;;;5.27;4.83;;;6.30;99.90;;;;;;4921255;29;20220;-79
2022/12/06 13:21:25;;;;;;;4.77;4.13;;;6.30;99.90;;;;;;4937635;29;20746;-77
2022/12/06 13:23:58;;;;;;;5.23;4.73;;;6.30;99.90;;;;;;4938829;29;20532;-83
2022/12/06 13:26:29;;;;;;;5.10;4.70;;;6.30;99.90;;;;;;4943263;29;20236;-83
2022/12/06 13:29:03;;;;;;;5.13;4.70;;;6.20;99.90;;;;;;4943649;29;20167;-84
2022/12/06 13:31:38;;;;;;;5.93;4.70;;;6.10;99.90;;;;;;4920428;29;20172;-84
2022/12/06 13:34:31;;;;;;;4.90;4.50;;;6.00;99.90;;;;;;4937598;29;20518;-79
2022/12/06 13:36:57;;;;;;;7.20;4.67;;;6.00;99.90;;;;;;4937530;29;20208;-82
2022/12/06 13:39:36;;;;;;;5.90;4.83;;;6.00;99.90;;;;;;4937104;29;20200;-83
2022/12/06 13:42:16;;;;;;;5.77;5.17;;;5.90;99.90;;;;;;4936817;29;20171;-78
2022/12/06 13:45:00;;;;;;;6.57;5.37;;;5.90;99.90;;;;;;4936620;29;20156;-84
2022/12/06 13:47:26;;;;;;;6.10;5.60;;;5.90;99.90;;;;;;4936820;29;20192;-82